Time;durP1;ratioP1;P1;durP2;ratioP2;P2;SDS_P1;SDS_P2;PMS_P1;PMS_P2;Temp;Humidity;BMP_temperature;BMP_pressure;BME280_temperature;BME280_humidity;BME280_pressure;Samples;Min_cycle;Max_cycle;Signal;HPM_P1;HPM_P2
2021/05/07 00:00:48;;;;;;;2.97;2.10;;;;;;;18.39;56.18;99648.22;2065340;28;20037;-56
2021/05/07 00:01:48;;;;;;;4.17;3.10;;;;;;;18.39;56.11;99645.50;2067278;28;20130;-56
2021/05/07 00:02:49;;;;;;;3.73;2.17;;;;;;;18.38;56.31;99644.66;2067885;28;20076;-57
2021/05/07 00:03:49;;;;;;;3.43;1.93;;;;;;;18.38;56.35;99647.38;2065695;28;20384;-57
2021/05/07 00:04:50;;;;;;;3.33;2.37;;;;;;;18.38;56.25;99639.19;2065845;28;20336;-56
2021/05/07 00:05:54;;;;;;;3.53;2.53;;;;;;;18.39;56.34;99640.03;2065090;28;20034;-57
2021/05/07 00:06:54;;;;;;;2.92;2.08;;;;;;;18.39;56.21;99638.16;2070314;28;20081;-56
2021/05/07 00:07:55;;;;;;;4.03;2.20;;;;;;;18.39;56.12;99646.34;2072962;28;20084;-57
2021/05/07 00:08:55;;;;;;;4.00;2.80;;;;;;;18.38;56.35;99633.72;2065465;28;20066;-56
2021/05/07 00:09:57;;;;;;;4.73;2.57;;;;;;;18.38;56.32;99636.47;2070575;28;20360;-56
2021/05/07 00:10:59;;;;;;;3.25;2.15;;;;;;;18.39;56.28;99635.44;2072101;28;20190;-57
2021/05/07 00:12:00;;;;;;;3.30;2.38;;;;;;;18.37;56.23;99634.75;2072160;28;20321;-57
2021/05/07 00:13:00;;;;;;;3.07;2.17;;;;;;;18.38;56.19;99633.72;2080336;28;20098;-56
2021/05/07 00:14:02;;;;;;;4.63;2.40;;;;;;;18.38;56.32;99644.66;2072309;28;20025;-56
2021/05/07 00:15:02;;;;;;;;;;;;;;;18.33;56.28;99635.22;2072168;28;20026;-56
2021/05/07 00:16:03;;;;;;;5.50;2.45;;;;;;;18.33;56.37;99641.53;2072867;28;19913;-57
2021/05/07 00:17:04;;;;;;;2.85;2.13;;;;;;;18.34;56.47;99637.78;2070774;28;20026;-57
2021/05/07 00:18:04;;;;;;;3.40;2.70;;;;;;;18.36;56.30;99635.75;2073045;28;20318;-56
2021/05/07 00:19:06;;;;;;;4.43;2.50;;;;;;;18.36;56.34;99635.75;2070537;28;20030;-56
2021/05/07 00:20:07;;;;;;;3.03;2.15;;;;;;;18.37;56.21;99639.34;2071974;28;20037;-57
2021/05/07 00:21:08;;;;;;;3.28;2.58;;;;;;;18.35;56.30;99634.06;2071236;28;20033;-56
2021/05/07 00:22:09;;;;;;;4.05;2.33;;;;;;;18.37;56.23;99636.59;2065955;28;20078;-57
2021/05/07 00:23:09;;;;;;;4.47;2.40;;;;;;;18.37;56.39;99633.88;2065259;28;20117;-56
2021/05/07 00:24:10;;;;;;;3.30;2.10;;;;;;;18.35;56.23;99628.59;2071178;28;20021;-57
2021/05/07 00:25:10;;;;;;;3.17;2.20;;;;;;;18.36;56.40;99630.28;2072767;28;20124;-56
2021/05/07 00:26:11;;;;;;;5.23;2.90;;;;;;;18.36;56.30;99626.72;2065829;28;20025;-57
2021/05/07 00:27:16;;;;;;;5.22;2.65;;;;;;;18.37;56.32;99628.41;2068156;28;20025;-57
2021/05/07 00:28:17;;;;;;;4.30;2.20;;;;;;;18.37;56.34;99626.56;2072908;28;20025;-56
2021/05/07 00:29:18;;;;;;;;;;;;;;;18.33;56.32;99627.03;2068461;28;20115;-56
2021/05/07 00:30:18;;;;;;;3.70;2.20;;;;;;;18.33;56.53;99624.31;2066134;28;20251;-56
2021/05/07 00:31:19;;;;;;;3.47;2.20;;;;;;;18.33;56.46;99622.44;2065895;28;20018;-57
2021/05/07 00:32:19;;;;;;;4.57;2.67;;;;;;;18.34;56.41;99626.84;2068665;28;20065;-57
2021/05/07 00:33:20;;;;;;;3.93;2.13;;;;;;;18.33;56.42;99625.16;2065177;28;20026;-56
2021/05/07 00:34:20;;;;;;;4.47;2.60;;;;;;;18.35;56.36;99625.00;2066918;28;20078;-57
2021/05/07 00:35:22;;;;;;;3.50;2.77;;;;;;;18.34;56.38;99621.41;2064847;28;20025;-56
2021/05/07 00:36:22;;;;;;;4.18;2.60;;;;;;;18.35;56.43;99617.69;2071917;28;20415;-57
2021/05/07 00:37:23;;;;;;;3.93;2.60;;;;;;;18.36;56.24;99624.84;2071362;28;20052;-57
2021/05/07 00:38:23;;;;;;;2.77;2.53;;;;;;;18.36;56.51;99616.66;2072024;28;20045;-57
2021/05/07 00:39:23;;;;;;;3.63;2.23;;;;;;;18.36;56.33;99619.38;2071943;28;20041;-56
2021/05/07 00:40:24;;;;;;;4.37;2.20;;;;;;;18.38;56.37;99617.34;2072512;28;20038;-57
2021/05/07 00:41:24;;;;;;;4.70;2.40;;;;;;;18.37;56.23;99612.94;2067356;28;20514;-57
2021/05/07 00:42:25;;;;;;;3.30;2.67;;;;;;;18.36;56.51;99608.47;2066806;28;20018;-56
2021/05/07 00:43:25;;;;;;;6.47;2.23;;;;;;;18.36;56.37;99611.19;2071570;28;20420;-56
2021/05/07 00:44:26;;;;;;;4.87;2.33;;;;;;;18.36;56.40;99613.91;2070207;28;20030;-57
2021/05/07 00:45:27;;;;;;;4.00;2.33;;;;;;;18.36;56.32;99602.16;2072442;28;20443;-57
2021/05/07 00:46:27;;;;;;;4.67;2.13;;;;;;;18.36;56.22;99608.47;2069855;28;20133;-57
2021/05/07 00:47:27;;;;;;;2.97;2.30;;;;;;;18.36;56.29;99622.09;2071517;28;20071;-57
2021/05/07 00:48:28;;;;;;;3.93;2.67;;;;;;;18.37;56.39;99620.22;2072250;28;20442;-56
2021/05/07 00:49:28;;;;;;;3.57;2.33;;;;;;;18.36;56.32;99616.66;2069779;28;20114;-57
2021/05/07 00:50:33;;;;;;;2.60;2.10;;;;;;;18.36;56.24;99615.81;2068004;28;20020;-57
2021/05/07 00:51:34;;;;;;;5.32;3.38;;;;;;;18.37;56.43;99620.22;2065949;28;20029;-57
2021/05/07 00:52:37;;;;;;;3.10;2.13;;;;;;;18.37;56.45;99617.50;2069892;28;20045;-57
2021/05/07 00:53:39;;;;;;;3.85;2.53;;;;;;;18.37;56.36;99614.78;2071053;28;20121;-56
2021/05/07 00:54:40;;;;;;;4.38;2.42;;;;;;;18.36;56.39;99611.19;2068480;28;20460;-56
2021/05/07 00:55:41;;;;;;;2.70;2.28;;;;;;;18.35;56.25;99623.13;2072511;28;20443;-56
2021/05/07 00:56:42;;;;;;;4.27;2.93;;;;;;;18.35;56.33;99614.94;2068543;28;20034;-56
2021/05/07 00:57:42;;;;;;;2.70;2.17;;;;;;;18.35;56.42;99612.22;2065456;28;20057;-56
2021/05/07 00:58:43;;;;;;;4.77;2.50;;;;;;;18.37;56.40;99621.13;2072366;28;20377;-57
2021/05/07 00:59:43;;;;;;;3.47;2.17;;;;;;;18.35;56.25;99617.69;2071424;28;20060;-57
2021/05/07 01:00:44;;;;;;;2.83;2.30;;;;;;;18.35;56.30;99620.41;2069649;28;20157;-57
2021/05/07 01:01:44;;;;;;;1.90;1.73;;;;;;;18.36;56.23;99622.09;2071945;28;20080;-57
2021/05/07 01:02:45;;;;;;;3.53;2.27;;;;;;;18.35;56.40;99617.69;2072408;28;20030;-57
2021/05/07 01:03:45;;;;;;;2.87;2.10;;;;;;;18.36;56.29;99619.38;2071678;28;20025;-57
2021/05/07 01:04:46;;;;;;;2.77;2.10;;;;;;;18.34;56.34;99613.22;2071820;28;20123;-57
2021/05/07 01:05:46;;;;;;;4.17;2.27;;;;;;;18.35;56.29;99620.41;2067922;28;20034;-56
2021/05/07 01:06:47;;;;;;;3.90;2.13;;;;;;;18.33;56.43;99616.97;2071586;28;20018;-57
2021/05/07 01:07:51;;;;;;;3.73;2.60;;;;;;;18.36;56.43;99615.81;2065633;28;20040;-57
2021/05/07 01:08:52;;;;;;;4.60;2.10;;;;;;;18.34;56.32;99615.94;2067109;28;20077;-56
2021/05/07 01:09:53;;;;;;;3.43;2.33;;;;;;;18.35;56.20;99614.09;2067712;28;20072;-57
2021/05/07 01:10:55;;;;;;;2.67;2.20;;;;;;;18.35;56.30;99606.75;2071796;28;20029;-56
2021/05/07 01:11:55;;;;;;;2.65;2.25;;;;;;;18.36;56.36;99618.53;2065287;28;20029;-57
2021/05/07 01:12:56;;;;;;;2.60;1.90;;;;;;;18.35;56.17;99616.81;2063981;28;20357;-56
2021/05/07 01:13:56;;;;;;;3.20;2.30;;;;;;;18.34;56.22;99607.75;2070423;28;20071;-56
2021/05/07 01:15:10;;;;;;;2.60;2.27;;;;;;;18.33;56.29;99614.25;2070634;28;20124;-56
2021/05/07 01:16:11;;;;;;;2.63;2.30;;;;;;;18.33;56.29;99616.97;2072293;28;20033;-56
2021/05/07 01:17:11;;;;;;;2.67;2.00;;;;;;;18.33;56.34;99610.66;2068163;28;20492;-56
2021/05/07 01:18:12;;;;;;;2.80;2.33;;;;;;;18.33;56.46;99614.25;2072886;28;20036;-56
2021/05/07 01:19:14;;;;;;;3.50;2.30;;;;;;;18.33;56.31;99611.50;2071990;28;20033;-57
2021/05/07 01:20:19;;;;;;;;;;;;;;;18.28;56.61;99611.13;2078712;28;20152;-56
2021/05/07 01:21:19;;;;;;;3.08;2.33;;;;;;;18.28;56.57;99605.66;2071975;28;20391;-56
2021/05/07 01:22:20;;;;;;;3.93;2.40;;;;;;;18.30;56.32;99611.84;2064750;28;20025;-57
2021/05/07 01:23:20;;;;;;;3.73;2.60;;;;;;;18.32;56.62;99611.66;2065019;28;20097;-56
2021/05/07 01:24:25;;;;;;;3.43;2.23;;;;;;;18.32;56.32;99608.94;2068921;28;20022;-56
2021/05/07 01:25:28;;;;;;;2.85;1.90;;;;;;;18.32;56.46;99601.59;2071195;28;20037;-56
2021/05/07 01:26:29;;;;;;;4.22;2.20;;;;;;;18.34;56.24;99604.19;2072900;28;20033;-57
2021/05/07 01:27:33;;;;;;;2.40;1.73;;;;;;;18.33;56.41;99599.75;2070506;28;20029;-57
2021/05/07 01:28:34;;;;;;;3.50;2.28;;;;;;;18.32;56.40;99601.59;2072987;28;20112;-56
2021/05/07 01:29:35;;;;;;;4.10;2.47;;;;;;;18.34;56.25;99598.72;2065465;28;20381;-56
2021/05/07 01:30:38;;;;;;;4.03;2.47;;;;;;;18.32;56.41;99596.13;2069463;28;21458;-57
2021/05/07 01:31:42;;;;;;;4.03;2.10;;;;;;;18.32;56.45;99598.00;2069977;28;20060;-57
2021/05/07 01:32:44;;;;;;;2.50;1.80;;;;;;;18.32;56.39;99601.59;2064621;28;20440;-57
2021/05/07 01:33:44;;;;;;;3.83;2.28;;;;;;;18.33;56.52;99607.94;2067882;28;20108;-57
2021/05/07 01:34:44;;;;;;;3.83;2.13;;;;;;;18.32;56.56;99598.88;2064944;28;20026;-56
2021/05/07 01:35:46;;;;;;;2.80;2.07;;;;;;;18.33;56.51;99605.22;2070126;28;20029;-56
2021/05/07 01:36:47;;;;;;;3.22;2.00;;;;;;;18.33;56.36;99608.78;2071560;28;20033;-56
2021/05/07 01:37:49;;;;;;;2.90;2.53;;;;;;;18.33;56.40;99607.94;2068195;28;20503;-56
2021/05/07 01:38:50;;;;;;;4.18;2.70;;;;;;;18.33;56.26;99603.34;2071558;28;20037;-56
2021/05/07 01:39:51;;;;;;;3.50;2.67;;;;;;;18.32;56.28;99604.31;2072035;28;20385;-57
2021/05/07 01:40:52;;;;;;;2.70;2.10;;;;;;;18.36;56.29;99607.63;2071719;28;20393;-56
2021/05/07 01:41:52;;;;;;;3.42;2.30;;;;;;;18.34;56.47;99609.63;2065760;28;20034;-57
2021/05/07 01:42:54;;;;;;;3.40;2.37;;;;;;;18.35;56.48;99612.22;2066565;28;20076;-57
2021/05/07 01:43:56;;;;;;;3.53;2.45;;;;;;;18.35;56.45;99614.09;2072310;28;20057;-56
2021/05/07 01:44:57;;;;;;;2.58;1.67;;;;;;;18.35;56.43;99616.81;2072106;28;20340;-57
2021/05/07 01:45:57;;;;;;;2.67;2.03;;;;;;;18.34;56.49;99621.41;2072262;28;20121;-57
2021/05/07 01:46:57;;;;;;;3.30;2.00;;;;;;;18.33;56.36;99614.25;2070077;28;20025;-58
2021/05/07 01:47:58;;;;;;;3.63;1.70;;;;;;;18.32;56.48;99607.06;2071593;28;20512;-56
2021/05/07 01:48:59;;;;;;;3.17;2.27;;;;;;;18.32;56.53;99617.97;2070471;28;20022;-56
2021/05/07 01:49:59;;;;;;;3.07;2.47;;;;;;;18.33;56.56;99619.69;2071494;28;20103;-57
2021/05/07 01:51:07;;;;;;;2.80;2.10;;;;;;;18.32;56.31;99620.69;2071281;28;20166;-56
2021/05/07 01:52:07;;;;;;;2.80;2.15;;;;;;;18.33;56.61;99614.25;2068150;28;20029;-57
2021/05/07 01:53:08;;;;;;;2.90;2.07;;;;;;;18.33;56.48;99613.41;2064430;28;20030;-57
2021/05/07 01:54:08;;;;;;;5.30;2.33;;;;;;;18.32;56.59;99614.38;2065863;28;20384;-56
2021/05/07 01:55:11;;;;;;;3.50;2.27;;;;;;;18.32;56.40;99614.38;2069341;28;20117;-56
2021/05/07 01:56:12;;;;;;;3.65;2.38;;;;;;;18.32;56.43;99612.50;2067160;28;20032;-56
2021/05/07 01:57:12;;;;;;;2.37;2.00;;;;;;;18.31;56.67;99616.28;2064161;28;20037;-56
2021/05/07 01:58:16;;;;;;;4.00;2.53;;;;;;;18.32;56.66;99617.97;2068630;28;20133;-56
2021/05/07 01:59:17;;;;;;;2.53;1.90;;;;;;;18.31;56.58;99616.28;2071896;28;20040;-57
2021/05/07 02:00:21;;;;;;;4.13;2.27;;;;;;;18.31;56.47;99616.28;2070826;28;20037;-57
2021/05/07 02:01:22;;;;;;;3.95;2.30;;;;;;;18.32;56.58;99607.06;2068900;28;20034;-57
2021/05/07 02:02:23;;;;;;;3.80;1.90;;;;;;;18.32;56.53;99609.78;2071301;28;20425;-57
2021/05/07 02:03:23;;;;;;;4.10;2.97;;;;;;;18.31;56.62;99615.41;2070380;28;20053;-57
2021/05/07 02:04:24;;;;;;;2.63;2.10;;;;;;;18.32;56.76;99612.50;2064884;28;20493;-57
2021/05/07 02:05:27;;;;;;;3.57;2.23;;;;;;;18.32;56.58;99620.69;2067954;28;20073;-57
2021/05/07 02:06:27;;;;;;;3.33;2.15;;;;;;;18.33;56.51;99616.13;2064978;28;20053;-57
2021/05/07 02:07:29;;;;;;;3.57;2.40;;;;;;;18.31;56.66;99615.41;2064321;28;20566;-57
2021/05/07 02:08:29;;;;;;;3.30;2.33;;;;;;;18.31;56.45;99621.72;2068747;28;20101;-56
2021/05/07 02:09:29;;;;;;;3.10;2.37;;;;;;;18.31;56.46;99619.00;2067710;28;20037;-56
2021/05/07 02:10:31;;;;;;;3.20;2.20;;;;;;;18.31;56.69;99619.00;2071237;28;20437;-57
2021/05/07 02:11:31;;;;;;;2.45;2.05;;;;;;;18.31;56.55;99621.72;2069877;28;20037;-57
2021/05/07 02:12:32;;;;;;;2.97;2.00;;;;;;;18.32;56.55;99617.13;2065225;28;20037;-56
2021/05/07 02:13:32;;;;;;;3.23;2.30;;;;;;;18.31;56.76;99621.72;2065861;28;20030;-56
2021/05/07 02:14:33;;;;;;;3.00;2.43;;;;;;;18.32;56.49;99619.84;2072130;28;20040;-57
2021/05/07 02:15:34;;;;;;;3.00;2.60;;;;;;;18.31;56.50;99624.44;2068356;28;20033;-56
2021/05/07 02:16:34;;;;;;;3.42;2.10;;;;;;;18.30;56.60;99620.03;2064574;28;20038;-57
2021/05/07 02:17:35;;;;;;;3.23;2.10;;;;;;;18.31;56.63;99623.59;2066866;28;20041;-56
2021/05/07 02:18:35;;;;;;;2.73;2.50;;;;;;;18.30;56.67;99620.03;2068939;28;20461;-56
2021/05/07 02:19:35;;;;;;;3.13;1.93;;;;;;;18.29;56.57;99617.44;2069100;28;20169;-57
2021/05/07 02:20:37;;;;;;;2.37;1.87;;;;;;;18.29;56.40;99628.34;2070858;28;20396;-57
2021/05/07 02:21:38;;;;;;;2.53;1.90;;;;;;;18.31;56.75;99620.88;2067617;28;20026;-56
2021/05/07 02:22:39;;;;;;;2.70;2.00;;;;;;;18.31;56.38;99621.72;2068674;28;20408;-57
2021/05/07 02:23:39;;;;;;;4.53;2.15;;;;;;;18.31;56.50;99629.06;2070519;28;20048;-57
2021/05/07 02:24:40;;;;;;;3.17;1.87;;;;;;;18.30;56.60;99620.03;2069185;28;20069;-57
2021/05/07 02:25:40;;;;;;;3.50;3.00;;;;;;;18.29;56.56;99622.91;2064343;28;20041;-57
2021/05/07 02:26:41;;;;;;;2.77;2.07;;;;;;;18.29;56.56;99621.00;2066923;28;20333;-57
2021/05/07 02:27:42;;;;;;;3.80;2.30;;;;;;;18.29;56.58;99623.75;2064530;28;20041;-57
2021/05/07 02:28:42;;;;;;;3.33;2.10;;;;;;;18.29;56.68;99623.75;2070699;28;20028;-56
2021/05/07 02:29:42;;;;;;;3.43;2.07;;;;;;;18.27;56.62;99617.59;2071752;28;20025;-57
2021/05/07 02:30:43;;;;;;;2.70;2.17;;;;;;;18.28;56.54;99619.31;2070597;28;20112;-56
2021/05/07 02:31:44;;;;;;;2.47;1.80;;;;;;;18.28;56.69;99616.59;2067711;28;20413;-56
2021/05/07 02:32:45;;;;;;;3.40;2.08;;;;;;;18.28;56.66;99619.31;2064403;28;20030;-56
2021/05/07 02:33:46;;;;;;;2.33;1.80;;;;;;;18.29;56.75;99618.28;2067095;28;20162;-57
2021/05/07 02:34:46;;;;;;;3.53;2.30;;;;;;;18.28;56.62;99615.75;2070836;28;20045;-57
2021/05/07 02:35:47;;;;;;;1.80;1.60;;;;;;;18.27;56.76;99614.84;2070829;28;20048;-57
2021/05/07 02:36:47;;;;;;;3.10;1.90;;;;;;;18.29;56.75;99614.72;2071599;28;20034;-56
2021/05/07 02:37:48;;;;;;;2.35;2.00;;;;;;;18.28;56.72;99616.59;2072185;28;20311;-56
2021/05/07 02:38:49;;;;;;;4.55;2.47;;;;;;;18.29;56.70;99615.56;2066366;28;20614;-57
2021/05/07 02:39:49;;;;;;;3.93;2.07;;;;;;;18.28;56.63;99616.59;2065756;28;20065;-56
2021/05/07 02:40:49;;;;;;;3.70;2.13;;;;;;;18.29;56.52;99618.28;2071497;28;20377;-57
2021/05/07 02:41:50;;;;;;;3.07;1.80;;;;;;;18.28;56.78;99621.19;2072470;28;20029;-57
2021/05/07 02:42:51;;;;;;;2.90;2.20;;;;;;;18.28;56.77;99615.75;2070428;28;20165;-57
2021/05/07 02:43:52;;;;;;;3.20;2.35;;;;;;;18.28;56.80;99621.19;2068959;28;20257;-57
2021/05/07 02:44:52;;;;;;;4.93;2.27;;;;;;;18.29;56.69;99617.44;2067349;28;20089;-59
2021/05/07 02:45:53;;;;;;;3.17;2.27;;;;;;;18.29;56.79;99620.16;2071823;28;20156;-56
2021/05/07 02:46:53;;;;;;;2.93;2.30;;;;;;;18.29;56.57;99622.91;2071677;28;20058;-56
2021/05/07 02:47:54;;;;;;;3.20;1.73;;;;;;;18.30;56.70;99628.22;2070995;28;20029;-57
2021/05/07 02:48:54;;;;;;;3.00;2.23;;;;;;;18.29;56.82;99618.28;2071485;28;20020;-57
2021/05/07 02:49:54;;;;;;;4.87;2.20;;;;;;;18.28;56.74;99622.03;2072034;28;20037;-56
2021/05/07 02:50:55;;;;;;;3.17;2.20;;;;;;;18.29;56.58;99623.75;2067425;28;20347;-56
2021/05/07 02:51:55;;;;;;;3.65;1.63;;;;;;;18.28;56.77;99622.03;2068892;28;20412;-57
2021/05/07 02:52:56;;;;;;;2.57;1.93;;;;;;;18.28;56.84;99627.50;2066791;28;20247;-56
2021/05/07 02:53:57;;;;;;;2.93;2.00;;;;;;;18.28;56.75;99627.50;2071435;28;20025;-57
2021/05/07 02:54:57;;;;;;;3.63;2.00;;;;;;;18.29;56.68;99629.19;2071749;28;20136;-56
2021/05/07 02:55:58;;;;;;;2.37;1.57;;;;;;;18.29;56.79;99623.75;2071180;28;20034;-56
2021/05/07 02:57:00;;;;;;;3.37;2.00;;;;;;;18.30;56.81;99625.47;2069766;28;20026;-56
2021/05/07 02:58:00;;;;;;;3.20;2.10;;;;;;;18.29;56.62;99629.19;2071017;28;20069;-57
2021/05/07 02:59:00;;;;;;;3.43;2.13;;;;;;;18.29;56.64;99628.34;2072155;28;20045;-56
2021/05/07 03:00:01;;;;;;;2.53;2.00;;;;;;;18.28;56.78;99627.50;2068848;28;20133;-56
2021/05/07 03:01:01;;;;;;;2.53;2.30;;;;;;;18.28;56.63;99627.50;2075620;28;20064;-57
2021/05/07 03:02:02;;;;;;;2.80;2.13;;;;;;;18.29;56.81;99622.91;2077786;28;20032;-56
2021/05/07 03:03:02;;;;;;;2.87;2.07;;;;;;;18.27;56.71;99625.75;2067190;28;20154;-57
2021/05/07 03:04:03;;;;;;;5.00;2.40;;;;;;;18.28;56.87;99621.19;2072867;28;20097;-57
2021/05/07 03:05:04;;;;;;;2.43;2.23;;;;;;;18.27;56.80;99625.75;2071198;28;20026;-56
2021/05/07 03:06:05;;;;;;;2.50;1.95;;;;;;;18.28;56.86;99630.22;2072596;28;20418;-56
2021/05/07 03:07:05;;;;;;;2.67;2.00;;;;;;;18.28;56.84;99626.66;2073563;28;20511;-57
2021/05/07 03:08:05;;;;;;;2.33;1.63;;;;;;;18.27;56.88;99625.75;2073526;28;20049;-57
2021/05/07 03:09:06;;;;;;;3.07;2.33;;;;;;;18.27;56.91;99625.75;2067096;28;20022;-57
2021/05/07 03:10:07;;;;;;;2.60;2.20;;;;;;;18.28;56.62;99626.66;2073444;28;20045;-57
2021/05/07 03:11:08;;;;;;;2.03;1.60;;;;;;;18.27;56.90;99631.22;2070320;28;20081;-56
2021/05/07 03:12:09;;;;;;;3.78;2.15;;;;;;;18.28;56.78;99626.66;2070103;28;20535;-57
2021/05/07 03:13:09;;;;;;;2.57;2.07;;;;;;;18.27;56.66;99620.31;2072624;28;20038;-57
2021/05/07 03:14:10;;;;;;;3.20;2.00;;;;;;;18.27;56.76;99628.50;2074018;28;20344;-57
2021/05/07 03:15:11;;;;;;;3.05;1.90;;;;;;;18.28;56.92;99626.66;2073057;28;20025;-57
2021/05/07 03:16:11;;;;;;;3.05;1.85;;;;;;;18.27;56.76;99628.50;2072801;28;20025;-57
2021/05/07 03:17:12;;;;;;;3.13;2.10;;;;;;;18.28;57.00;99626.66;2073687;28;20028;-57
2021/05/07 03:18:14;;;;;;;3.33;2.40;;;;;;;18.28;56.72;99621.19;2072036;28;20068;-57
2021/05/07 03:19:15;;;;;;;3.03;2.20;;;;;;;18.28;56.75;99622.03;2073764;28;20275;-56
2021/05/07 03:20:16;;;;;;;3.00;1.83;;;;;;;18.27;56.87;99620.31;2072095;28;20421;-57
2021/05/07 03:21:17;;;;;;;2.60;1.90;;;;;;;18.28;56.84;99622.03;2072799;28;20163;-57
2021/05/07 03:22:17;;;;;;;2.40;1.90;;;;;;;18.27;56.76;99620.31;2073627;28;20030;-56
2021/05/07 03:23:18;;;;;;;2.07;1.87;;;;;;;18.27;56.76;99620.31;2065152;28;20358;-57
2021/05/07 03:24:19;;;;;;;3.35;2.15;;;;;;;18.27;56.68;99622.19;2075739;28;20025;-56
2021/05/07 03:25:19;;;;;;;2.67;1.97;;;;;;;18.27;56.95;99617.59;2079490;28;20398;-57
2021/05/07 03:26:20;;;;;;;4.20;2.00;;;;;;;18.26;57.02;99624.06;2071837;28;20038;-56
2021/05/07 03:27:20;;;;;;;4.77;2.07;;;;;;;18.28;56.82;99624.78;2072958;28;20026;-56
2021/05/07 03:28:21;;;;;;;2.87;1.77;;;;;;;18.27;56.83;99623.03;2072445;28;20030;-56
2021/05/07 03:29:21;;;;;;;3.07;1.93;;;;;;;18.27;56.91;99622.19;2073671;28;20107;-61
2021/05/07 03:30:22;;;;;;;2.90;2.00;;;;;;;18.26;56.89;99618.59;2070471;28;20030;-57
2021/05/07 03:31:22;;;;;;;2.30;2.00;;;;;;;18.25;56.92;99622.38;2072452;28;20073;-57
2021/05/07 03:32:22;;;;;;;2.53;1.90;;;;;;;18.26;56.98;99624.06;2072518;28;20372;-56
2021/05/07 03:33:23;;;;;;;2.93;1.80;;;;;;;18.27;56.88;99619.47;2070925;28;20036;-56
2021/05/07 03:34:23;;;;;;;2.17;1.90;;;;;;;18.26;56.87;99618.59;2065833;28;20030;-56
2021/05/07 03:35:24;;;;;;;3.00;2.10;;;;;;;18.27;56.80;99614.00;2066161;28;20033;-57
2021/05/07 03:36:24;;;;;;;2.33;1.90;;;;;;;18.25;56.80;99622.38;2065712;28;20121;-57
2021/05/07 03:37:25;;;;;;;3.00;1.90;;;;;;;18.26;56.83;99613.16;2071994;28;20044;-56
2021/05/07 03:38:25;;;;;;;2.07;1.70;;;;;;;18.28;56.92;99622.03;2071012;28;20101;-57
2021/05/07 03:39:25;;;;;;;2.87;2.17;;;;;;;18.26;56.96;99617.75;2072626;28;20373;-56
2021/05/07 03:40:26;;;;;;;2.23;1.87;;;;;;;18.25;56.79;99622.38;2069286;28;20026;-56
2021/05/07 03:41:26;;;;;;;3.97;2.00;;;;;;;18.25;57.03;99616.91;2073215;28;20480;-57
2021/05/07 03:42:27;;;;;;;3.37;2.40;;;;;;;18.26;56.82;99613.16;2069745;28;20037;-57
2021/05/07 03:43:27;;;;;;;3.30;2.40;;;;;;;18.25;56.84;99622.38;2070250;28;20034;-57
2021/05/07 03:44:28;;;;;;;2.77;2.10;;;;;;;18.26;57.04;99618.59;2072353;28;20121;-57
2021/05/07 03:45:28;;;;;;;2.80;1.80;;;;;;;18.26;56.80;99618.59;2071515;28;20037;-56
2021/05/07 03:46:29;;;;;;;4.23;2.10;;;;;;;18.25;57.02;99625.09;2065221;28;20053;-57
2021/05/07 03:47:29;;;;;;;2.90;2.67;;;;;;;18.26;56.75;99631.41;2071684;28;20109;-56
2021/05/07 03:48:29;;;;;;;3.00;1.70;;;;;;;18.25;57.05;99622.38;2072645;28;20589;-57
2021/05/07 03:49:30;;;;;;;2.60;1.70;;;;;;;18.24;56.89;99626.09;2073432;28;20032;-57
2021/05/07 03:50:31;;;;;;;3.00;2.00;;;;;;;18.24;56.85;99623.34;2072469;28;20095;-57
2021/05/07 03:51:31;;;;;;;3.20;2.17;;;;;;;18.24;57.02;99626.09;2065956;28;20057;-56
2021/05/07 03:52:32;;;;;;;2.07;1.77;;;;;;;18.25;57.00;99627.81;2070452;28;20087;-57
2021/05/07 03:53:32;;;;;;;2.87;1.90;;;;;;;18.26;57.00;99618.59;2069601;28;20040;-57
2021/05/07 03:54:32;;;;;;;2.93;2.00;;;;;;;18.26;56.97;99624.06;2070786;28;20036;-56
2021/05/07 03:55:33;;;;;;;3.13;2.03;;;;;;;18.25;56.99;99627.81;2073223;28;20040;-57
2021/05/07 03:56:33;;;;;;;2.93;1.70;;;;;;;18.24;57.00;99626.09;2072854;28;20045;-57
2021/05/07 03:57:34;;;;;;;4.37;1.80;;;;;;;18.23;56.88;99632.56;2070842;28;20042;-57
2021/05/07 03:58:34;;;;;;;2.80;1.83;;;;;;;18.24;56.85;99631.53;2073353;28;20092;-57
2021/05/07 03:59:34;;;;;;;4.73;2.60;;;;;;;18.24;56.91;99637.00;2070524;28;20139;-57
2021/05/07 04:00:36;;;;;;;2.10;1.73;;;;;;;18.25;56.91;99629.66;2072865;28;20494;-56
2021/05/07 04:01:36;;;;;;;3.03;1.73;;;;;;;18.25;57.10;99633.28;2073507;28;20416;-57
2021/05/07 04:02:37;;;;;;;2.30;1.60;;;;;;;18.27;57.06;99633.09;2066778;28;20058;-56
2021/05/07 04:03:38;;;;;;;3.00;1.90;;;;;;;18.26;56.74;99639.59;2065450;28;20488;-56
2021/05/07 04:04:39;;;;;;;3.87;2.77;;;;;;;18.27;56.97;99641.28;2071581;28;20085;-57
2021/05/07 04:05:41;;;;;;;2.90;1.98;;;;;;;18.24;57.07;99631.53;2072559;28;20424;-56
2021/05/07 04:06:41;;;;;;;2.83;1.90;;;;;;;18.25;56.97;99641.47;2071178;28;20029;-56
2021/05/07 04:07:42;;;;;;;2.17;1.50;;;;;;;18.25;56.77;99636.00;2078213;28;20536;-56
2021/05/07 04:08:44;;;;;;;2.53;1.83;;;;;;;18.25;56.98;99637.84;2080705;28;20147;-57
2021/05/07 04:10:01;;;;;;;2.58;1.83;;;;;;;18.25;56.84;99638.72;2068298;28;20057;-56
2021/05/07 04:11:08;;;;;;;3.67;1.83;;;;;;;18.25;57.01;99638.72;2068326;28;20425;-57
2021/05/07 04:14:30;;;;;;;3.17;1.73;;;;;;;18.23;56.82;99640.75;2070323;28;20566;-54
2021/05/07 04:15:30;;;;;;;3.63;2.27;;;;;;;18.24;56.94;99642.47;2073142;28;20145;-55
2021/05/07 04:16:31;;;;;;;3.43;2.47;;;;;;;18.23;56.94;99645.31;2070197;28;20148;-54
2021/05/07 04:17:31;;;;;;;2.23;1.87;;;;;;;18.23;56.91;99651.66;2072778;28;20037;-54
2021/05/07 04:18:32;;;;;;;2.03;1.43;;;;;;;18.24;57.02;99645.19;2072582;28;20037;-54
2021/05/07 04:19:33;;;;;;;2.45;1.60;;;;;;;18.24;56.87;99642.47;2070128;28;20399;-54
2021/05/07 04:20:33;;;;;;;2.97;1.80;;;;;;;18.25;56.94;99646.03;2073271;28;20045;-54
2021/05/07 04:21:33;;;;;;;2.77;2.03;;;;;;;18.25;56.90;99640.56;2071414;28;20033;-54
2021/05/07 04:22:35;;;;;;;2.10;1.60;;;;;;;18.25;56.96;99644.19;2073187;28;20133;-57
2021/05/07 04:23:35;;;;;;;2.40;1.83;;;;;;;18.23;56.99;99654.41;2063345;28;20207;-57
2021/05/07 04:24:35;;;;;;;3.97;2.23;;;;;;;18.25;57.09;99641.47;2067863;28;20045;-56
2021/05/07 04:25:36;;;;;;;2.33;1.73;;;;;;;18.23;56.82;99654.41;2073169;28;20034;-57
2021/05/07 04:26:37;;;;;;;2.20;1.70;;;;;;;18.24;56.86;99645.19;2072020;28;20017;-56
2021/05/07 04:27:38;;;;;;;3.87;1.57;;;;;;;18.24;56.85;99647.91;2066163;28;20039;-56
2021/05/07 04:28:38;;;;;;;3.67;1.70;;;;;;;18.25;56.99;99646.91;2071824;28;20322;-56
2021/05/07 04:29:40;;;;;;;2.83;1.80;;;;;;;18.25;56.97;99646.91;2071950;28;20041;-56
2021/05/07 04:30:40;;;;;;;2.80;1.65;;;;;;;18.24;56.82;99647.91;2067103;28;20033;-57
2021/05/07 04:31:41;;;;;;;1.87;1.50;;;;;;;18.24;56.81;99653.38;2072506;28;20053;-57
2021/05/07 04:32:41;;;;;;;3.03;1.93;;;;;;;18.25;56.99;99654.22;2073361;28;20030;-57
2021/05/07 04:33:41;;;;;;;2.57;1.77;;;;;;;18.25;56.92;99663.28;2070671;28;20041;-57
2021/05/07 04:34:42;;;;;;;2.17;1.80;;;;;;;18.23;56.92;99654.41;2072200;28;20486;-57
2021/05/07 04:35:43;;;;;;;1.80;1.67;;;;;;;18.24;56.90;99647.91;2072612;28;20457;-56
2021/05/07 04:36:43;;;;;;;2.30;1.80;;;;;;;18.26;56.90;99656.81;2068480;28;20038;-56
2021/05/07 04:37:43;;;;;;;3.33;1.87;;;;;;;18.25;56.93;99663.28;2065201;28;20030;-56
2021/05/07 04:38:44;;;;;;;1.73;1.40;;;;;;;18.24;56.94;99658.81;2069438;28;20030;-56
2021/05/07 04:39:44;;;;;;;4.07;1.77;;;;;;;18.23;57.03;99662.56;2072657;28;20041;-56
2021/05/07 04:40:45;;;;;;;2.77;1.60;;;;;;;18.22;57.02;99652.66;2073109;28;20108;-56
2021/05/07 04:41:45;;;;;;;2.23;1.63;;;;;;;18.23;56.92;99659.84;2069381;28;20064;-57
2021/05/07 04:42:45;;;;;;;2.27;1.60;;;;;;;18.23;56.96;99656.25;2064204;28;20136;-57
2021/05/07 04:43:46;;;;;;;2.57;1.73;;;;;;;18.21;57.04;99660.00;2069243;28;20026;-57
2021/05/07 04:44:46;;;;;;;3.10;1.60;;;;;;;18.23;57.18;99659.84;2064459;28;20026;-56
2021/05/07 04:45:47;;;;;;;1.90;1.70;;;;;;;18.23;56.94;99668.03;2067558;28;20089;-56
2021/05/07 04:46:47;;;;;;;2.37;1.87;;;;;;;18.23;56.91;99661.69;2069474;28;20042;-56
2021/05/07 04:47:48;;;;;;;3.17;2.10;;;;;;;18.22;56.98;99658.13;2073072;28;20169;-56
2021/05/07 04:48:49;;;;;;;2.47;1.97;;;;;;;18.21;57.01;99660.00;2071710;28;20026;-57
2021/05/07 04:49:49;;;;;;;2.85;1.92;;;;;;;18.21;57.15;99662.72;2073289;28;20041;-57